createdAt,value
2018-08-30T00:00:55.832Z,94.20
2018-08-30T00:03:37.430Z,94.30
2018-08-30T00:06:19.232Z,94.40
2018-08-30T00:09:01.501Z,94.60
2018-08-30T00:11:42.866Z,94.70
2018-08-30T00:14:24.725Z,94.60
2018-08-30T00:17:06.538Z,94.90
2018-08-30T00:19:48.178Z,95.00
2018-08-30T00:22:31.167Z,95.00
2018-08-30T00:25:12.856Z,95.20
2018-08-30T00:27:54.792Z,95.30
2018-08-30T00:30:36.337Z,95.40
2018-08-30T00:33:18.294Z,95.40
2018-08-30T00:35:59.915Z,95.80
2018-08-30T00:38:42.588Z,95.80
2018-08-30T00:41:23.767Z,96.00
2018-08-30T00:44:04.682Z,96.10
2018-08-30T00:46:45.490Z,96.20
2018-08-30T00:49:26.589Z,96.40
2018-08-30T00:52:07.875Z,96.60
2018-08-30T00:54:49.198Z,96.60
2018-08-30T00:57:30.402Z,96.80
2018-08-30T01:00:11.588Z,96.80
2018-08-30T01:02:52.490Z,96.90
2018-08-30T01:05:34.448Z,97.10
2018-08-30T01:08:15.365Z,97.20
2018-08-30T01:10:57.262Z,97.40
2018-08-30T01:13:38.296Z,97.40
2018-08-30T01:16:20.198Z,97.70
2018-08-30T01:19:02.016Z,97.50
2018-08-30T01:21:43.748Z,97.60
2018-08-30T01:24:24.721Z,97.60
2018-08-30T01:27:06.440Z,97.60
2018-08-30T01:29:48.075Z,97.70
2018-08-30T01:32:29.943Z,97.60
2018-08-30T01:35:11.655Z,97.90
2018-08-30T01:37:53.362Z,98.20
2018-08-30T01:40:35.039Z,98.40
2018-08-30T01:43:15.870Z,98.00
2018-08-30T01:45:57.778Z,98.10
2018-08-30T01:48:38.703Z,98.20
2018-08-30T01:51:20.402Z,98.20
2018-08-30T01:54:01.452Z,98.10
2018-08-30T01:56:43.289Z,98.10
2018-08-30T01:59:24.248Z,98.00
2018-08-30T02:02:05.186Z,97.90
2018-08-30T02:04:47.019Z,97.90
2018-08-30T02:07:28.085Z,98.00
2018-08-30T02:10:09.107Z,98.10
2018-08-30T02:12:50.673Z,98.10
2018-08-30T02:15:32.342Z,98.00
2018-08-30T02:18:14.291Z,97.90
2018-08-30T02:20:56.169Z,97.60
2018-08-30T02:23:37.918Z,97.60
2018-08-30T02:26:19.570Z,97.50
2018-08-30T02:29:01.272Z,97.60
2018-08-30T02:31:42.262Z,97.50
2018-08-30T02:34:24.581Z,97.50
2018-08-30T02:37:05.831Z,97.50
2018-08-30T02:39:48.646Z,97.50
2018-08-30T02:42:30.346Z,97.40
2018-08-30T02:45:11.223Z,97.70
2018-08-30T02:47:51.953Z,97.10
2018-08-30T02:50:33.834Z,97.40
2018-08-30T02:53:15.605Z,97.40
2018-08-30T02:55:58.138Z,97.40
2018-08-30T02:58:40.333Z,97.40
2018-08-30T03:01:22.139Z,97.50
2018-08-30T03:04:05.080Z,97.70
2018-08-30T03:06:46.727Z,97.70
2018-08-30T03:09:27.735Z,97.70
2018-08-30T03:12:08.864Z,97.70
2018-08-30T03:14:49.597Z,97.70
2018-08-30T03:17:30.662Z,97.70
2018-08-30T03:20:14.051Z,97.80
2018-08-30T03:22:55.221Z,97.80
2018-08-30T03:25:36.983Z,97.80
2018-08-30T03:28:18.752Z,97.80
2018-08-30T03:30:59.842Z,97.80
2018-08-30T03:33:42.590Z,97.70
2018-08-30T03:36:24.152Z,97.60
2018-08-30T03:39:05.980Z,97.60
2018-08-30T03:41:47.734Z,97.50
2018-08-30T03:44:28.633Z,97.70
2018-08-30T03:47:16.580Z,97.70
2018-08-30T03:49:58.401Z,97.70
2018-08-30T03:52:40.029Z,97.90
2018-08-30T03:58:10.399Z,97.80
2018-08-30T04:00:52.037Z,98.00
2018-08-30T04:03:33.847Z,98.00
2018-08-30T04:06:15.698Z,98.00
2018-08-30T04:08:57.374Z,98.10
2018-08-30T04:11:39.786Z,98.10
2018-08-30T04:14:20.706Z,98.30
2018-08-30T04:17:02.420Z,98.40
2018-08-30T04:19:44.369Z,98.10
2018-08-30T04:22:26.230Z,98.00
2018-08-30T04:25:08.058Z,98.00
2018-08-30T04:27:49.834Z,97.80
2018-08-30T04:30:31.527Z,98.00
2018-08-30T04:33:13.743Z,97.90
2018-08-30T04:35:54.872Z,98.00
2018-08-30T04:38:36.767Z,97.90
2018-08-30T04:41:18.572Z,98.00
2018-08-30T04:44:00.511Z,97.90
2018-08-30T04:46:42.090Z,97.90
2018-08-30T04:49:23.802Z,97.50
2018-08-30T04:52:05.484Z,97.30
2018-08-30T04:54:47.553Z,97.40
2018-08-30T04:57:29.041Z,97.30
2018-08-30T05:00:10.609Z,97.20
2018-08-30T05:02:51.643Z,97.10
2018-08-30T05:05:33.456Z,97.00
2018-08-30T05:08:15.352Z,97.00
2018-08-30T05:10:57.382Z,97.10
2018-08-30T05:13:39.023Z,97.10
2018-08-30T05:16:20.793Z,97.20
2018-08-30T05:19:02.385Z,97.80
2018-08-30T05:21:43.380Z,97.40
2018-08-30T05:24:25.031Z,97.50
2018-08-30T05:27:06.825Z,97.40
2018-08-30T05:29:48.525Z,97.40
2018-08-30T05:32:30.185Z,97.30
2018-08-30T05:35:11.889Z,97.40
2018-08-30T05:37:53.701Z,97.00
2018-08-30T05:40:35.447Z,97.10
2018-08-30T05:43:16.966Z,97.10
2018-08-30T05:45:58.717Z,96.80
2018-08-30T05:48:40.246Z,96.70
2018-08-30T05:51:21.384Z,96.60
2018-08-30T05:54:02.470Z,96.60
2018-08-30T05:56:43.451Z,96.50
2018-08-30T05:59:25.093Z,96.20
2018-08-30T06:02:06.004Z,96.30
2018-08-30T06:04:47.654Z,96.10
2018-08-30T06:07:29.334Z,96.00
2018-08-30T06:10:11.228Z,96.00
2018-08-30T06:12:52.218Z,96.30
2018-08-30T06:15:34.125Z,96.00
2018-08-30T06:18:15.970Z,95.90
2018-08-30T06:20:57.841Z,95.90
2018-08-30T06:23:39.701Z,95.90
2018-08-30T06:26:21.290Z,95.90
2018-08-30T06:29:03.176Z,95.60
2018-08-30T06:31:45.152Z,95.60
2018-08-30T06:34:26.913Z,95.50
2018-08-30T06:37:09.750Z,95.40
2018-08-30T06:39:51.224Z,95.50
2018-08-30T06:42:32.760Z,95.20
2018-08-30T06:45:14.522Z,95.00
2018-08-30T06:47:56.133Z,94.80
2018-08-30T06:50:38.374Z,94.90
2018-08-30T06:53:19.317Z,94.90
2018-08-30T06:56:00.985Z,94.70
2018-08-30T06:58:42.771Z,94.60
2018-08-30T07:01:24.404Z,93.10
2018-08-30T07:04:06.107Z,92.60
2018-08-30T07:06:46.944Z,92.70
2018-08-30T07:09:28.875Z,93.20
2018-08-30T07:12:10.855Z,92.20
2018-08-30T07:14:52.318Z,92.10
2018-08-30T07:17:33.974Z,92.50
2018-08-30T07:20:14.832Z,93.00
2018-08-30T07:22:55.830Z,93.30
2018-08-30T07:25:37.369Z,93.40
2018-08-30T07:28:18.982Z,93.10
2018-08-30T07:31:00.907Z,92.90
2018-08-30T07:33:42.700Z,93.00
2018-08-30T07:36:24.405Z,92.50
2018-08-30T07:39:06.057Z,92.50
2018-08-30T07:41:46.810Z,92.60
2018-08-30T07:44:28.689Z,92.80
2018-08-30T07:47:10.342Z,93.30
2018-08-30T07:49:52.160Z,93.70
2018-08-30T07:52:33.796Z,93.80
2018-08-30T07:55:15.145Z,93.70
2018-08-30T07:57:56.828Z,93.40
2018-08-30T08:00:38.732Z,93.10
2018-08-30T08:03:21.043Z,93.10
2018-08-30T08:06:02.629Z,93.00
2018-08-30T08:08:44.300Z,93.30
2018-08-30T08:11:25.108Z,93.40
2018-08-30T08:16:54.449Z,92.70
2018-08-30T08:19:36.229Z,92.80
2018-08-30T08:22:18.025Z,92.30
2018-08-30T08:24:58.874Z,91.90
2018-08-30T08:27:39.698Z,90.80
2018-08-30T08:30:21.217Z,90.00
2018-08-30T08:33:02.057Z,90.10
2018-08-30T08:35:43.694Z,89.70
2018-08-30T08:38:24.544Z,89.70
2018-08-30T08:41:05.314Z,90.50
2018-08-30T08:43:46.095Z,90.70
2018-08-30T08:46:27.982Z,90.90
2018-08-30T08:49:11.115Z,90.90
2018-08-30T08:51:52.768Z,91.20
2018-08-30T08:54:34.824Z,90.00
2018-08-30T08:57:16.431Z,88.30
2018-08-30T08:59:57.870Z,86.80
2018-08-30T09:02:38.825Z,86.30
2018-08-30T09:05:20.455Z,85.70
2018-08-30T09:08:02.286Z,85.10
2018-08-30T09:10:43.112Z,83.40
2018-08-30T09:13:24.734Z,85.50
2018-08-30T09:16:06.420Z,87.50
2018-08-30T09:18:48.087Z,88.50
2018-08-30T09:21:28.873Z,88.10
2018-08-30T09:24:09.908Z,87.90
2018-08-30T09:26:51.483Z,86.50
2018-08-30T09:29:33.062Z,89.20
2018-08-30T09:32:14.050Z,88.60
2018-08-30T09:34:56.667Z,90.40
2018-08-30T09:37:37.440Z,89.00
2018-08-30T09:40:18.486Z,90.60
2018-08-30T09:43:00.255Z,90.50
2018-08-30T09:45:42.098Z,90.10
2018-08-30T09:48:22.943Z,90.00
2018-08-30T09:51:03.612Z,90.70
2018-08-30T09:53:45.338Z,90.60
2018-08-30T09:56:27.183Z,90.90
2018-08-30T09:59:09.763Z,90.90
2018-08-30T10:01:55.611Z,91.10
2018-08-30T10:04:37.516Z,91.10
2018-08-30T10:07:19.312Z,90.50
2018-08-30T10:10:00.993Z,90.20
2018-08-30T10:12:42.811Z,88.90
2018-08-30T10:37:35.853Z,83.80
2018-08-30T10:40:17.738Z,84.00
2018-08-30T10:42:58.665Z,84.30
2018-08-30T10:45:39.413Z,84.40
2018-08-30T10:48:20.479Z,83.20
2018-08-30T10:51:02.112Z,82.00
2018-08-30T10:53:43.945Z,83.60
2018-08-30T10:56:24.976Z,85.60
2018-08-30T10:59:06.634Z,85.40
2018-08-30T11:01:47.642Z,85.60
2018-08-30T11:04:28.907Z,83.80
2018-08-30T11:07:10.545Z,79.60
2018-08-30T11:09:52.906Z,82.10
2018-08-30T11:12:34.114Z,82.80
2018-08-30T11:15:15.865Z,81.90
2018-08-30T11:17:57.287Z,83.10
2018-08-30T11:20:38.244Z,81.30
2018-08-30T11:23:20.027Z,84.70
2018-08-30T11:26:00.709Z,82.00
2018-08-30T11:28:42.409Z,81.80
2018-08-30T11:31:24.005Z,82.90
2018-08-30T11:34:06.521Z,84.00
2018-08-30T11:36:47.464Z,82.40
2018-08-30T11:39:28.368Z,83.00
2018-08-30T11:42:09.229Z,80.70
2018-08-30T11:44:50.898Z,81.20
2018-08-30T11:47:31.769Z,81.10
2018-08-30T11:50:12.442Z,81.50
2018-08-30T11:52:54.056Z,81.50
2018-08-30T11:55:35.739Z,81.50
2018-08-30T11:58:17.295Z,80.40
2018-08-30T12:00:58.248Z,79.80
2018-08-30T12:03:39.974Z,79.70
2018-08-30T12:06:21.642Z,78.30
2018-08-30T12:09:03.528Z,77.10
2018-08-30T12:11:44.945Z,77.50
2018-08-30T12:14:25.760Z,77.70
2018-08-30T12:17:06.574Z,77.00
2018-08-30T12:19:48.163Z,77.30
2018-08-30T12:22:30.151Z,77.50
2018-08-30T12:25:11.370Z,77.30
2018-08-30T12:27:52.231Z,78.20
2018-08-30T12:30:34.492Z,77.90
2018-08-30T12:33:15.721Z,77.90
2018-08-30T12:35:57.525Z,78.30
2018-08-30T12:38:38.409Z,79.80
2018-08-30T12:41:20.023Z,79.10
2018-08-30T12:44:01.379Z,78.40
2018-08-30T12:46:42.626Z,79.00
2018-08-30T12:49:24.141Z,79.70
2018-08-30T12:52:05.983Z,79.30
2018-08-30T12:54:47.631Z,79.60
2018-08-30T12:57:29.264Z,78.70
2018-08-30T13:00:11.318Z,80.20
2018-08-30T13:02:54.859Z,80.20
2018-08-30T13:05:36.288Z,80.00
2018-08-30T13:08:17.697Z,80.70
2018-08-30T13:11:00.567Z,80.90
2018-08-30T13:13:42.307Z,81.10
2018-08-30T13:16:23.388Z,81.30
2018-08-30T13:19:04.804Z,81.20
2018-08-30T13:21:46.908Z,81.60
2018-08-30T13:24:28.404Z,80.10
2018-08-30T13:27:10.152Z,80.90
2018-08-30T13:29:52.003Z,80.50
2018-08-30T13:32:33.022Z,81.60
2018-08-30T13:35:13.863Z,81.10
2018-08-30T13:37:55.529Z,83.50
2018-08-30T13:40:37.445Z,82.80
2018-08-30T13:43:19.184Z,82.90
2018-08-30T13:46:01.570Z,84.30
2018-08-30T13:48:43.412Z,84.60
2018-08-30T13:51:24.656Z,84.50
2018-08-30T13:54:06.421Z,84.90
2018-08-30T13:56:47.854Z,85.50
2018-08-30T13:59:28.737Z,85.40
2018-08-30T14:02:10.059Z,83.60
2018-08-30T14:04:52.075Z,83.30
2018-08-30T14:07:33.505Z,85.00
2018-08-30T14:10:15.354Z,84.20
2018-08-30T14:12:56.953Z,84.50
2018-08-30T14:15:38.534Z,85.50
2018-08-30T14:18:20.502Z,84.40
2018-08-30T14:21:02.019Z,83.90
2018-08-30T14:23:43.955Z,84.20
2018-08-30T14:26:25.515Z,83.80
2018-08-30T14:29:07.232Z,83.20
2018-08-30T14:31:49.202Z,82.00
2018-08-30T14:34:30.463Z,81.20
2018-08-30T14:37:12.060Z,80.70
2018-08-30T14:39:54.291Z,81.90
2018-08-30T14:42:35.675Z,82.90
2018-08-30T14:45:17.508Z,83.30
2018-08-30T14:47:59.422Z,84.40
2018-08-30T14:50:40.911Z,83.40
2018-08-30T14:53:21.895Z,83.80
2018-08-30T14:56:03.460Z,82.50
2018-08-30T15:29:54.705Z,86.10
2018-08-30T15:32:36.362Z,86.70
2018-08-30T15:35:17.965Z,86.30
2018-08-30T15:37:58.746Z,85.90
2018-08-30T15:40:40.591Z,86.60
2018-08-30T15:43:21.378Z,87.60
2018-08-30T15:46:03.170Z,86.20
2018-08-30T15:48:44.743Z,86.40
2018-08-30T15:51:27.501Z,87.60
2018-08-30T15:54:08.399Z,87.80
2018-08-30T15:56:50.247Z,87.30
2018-08-30T15:59:31.149Z,87.70
2018-08-30T16:02:13.145Z,88.40
2018-08-30T16:04:55.210Z,89.30
2018-08-30T16:07:36.398Z,90.00
2018-08-30T16:10:17.220Z,89.70
2018-08-30T16:12:58.072Z,89.40
2018-08-30T16:15:39.623Z,89.40
2018-08-30T16:18:21.314Z,89.70
2018-08-30T16:21:02.937Z,90.10
2018-08-30T16:23:43.714Z,90.30
2018-08-30T16:26:24.885Z,90.50
2018-08-30T16:29:06.302Z,90.50
2018-08-30T16:31:47.830Z,90.70
2018-08-30T16:34:28.583Z,90.80
2018-08-30T16:37:09.404Z,90.80
2018-08-30T16:39:51.282Z,90.60
2018-08-30T16:42:32.867Z,91.30
2018-08-30T16:45:14.595Z,91.40
2018-08-30T16:47:56.224Z,91.50
2018-08-30T16:50:37.122Z,91.20
2018-08-30T16:53:19.725Z,91.30
2018-08-30T16:56:01.501Z,91.70
2018-08-30T16:58:43.314Z,91.50
2018-08-30T17:04:15.562Z,92.10
2018-08-30T17:06:57.221Z,92.30
2018-08-30T17:09:39.135Z,92.70
2018-08-30T17:12:21.288Z,92.90
2018-08-30T17:15:02.908Z,92.90
2018-08-30T17:17:44.582Z,93.10
2018-08-30T17:20:26.090Z,93.30
2018-08-30T17:23:07.771Z,93.60
2018-08-30T17:25:48.665Z,93.80
2018-08-30T17:28:30.337Z,93.70
2018-08-30T17:31:12.419Z,93.70
2018-08-30T17:33:53.854Z,94.10
2018-08-30T17:36:35.553Z,94.10
2018-08-30T17:39:17.112Z,94.50
2018-08-30T17:41:58.849Z,95.10
2018-08-30T17:44:40.669Z,95.70
2018-08-30T17:47:22.494Z,96.00
2018-08-30T17:50:04.442Z,96.20
2018-08-30T17:52:46.089Z,96.20
2018-08-30T17:55:27.809Z,96.50
2018-08-30T17:58:09.493Z,96.80
2018-08-30T18:00:51.060Z,96.80
2018-08-30T18:03:32.665Z,96.30
2018-08-30T18:06:14.393Z,96.30
2018-08-30T18:08:56.146Z,96.10
2018-08-30T18:11:38.875Z,95.80
2018-08-30T18:14:20.522Z,95.90
2018-08-30T18:17:02.246Z,95.70
2018-08-30T18:19:43.873Z,95.80
2018-08-30T18:22:25.551Z,95.70
2018-08-30T18:25:07.090Z,95.80
2018-08-30T18:27:48.893Z,95.60
2018-08-30T18:30:30.683Z,96.10
2018-08-30T18:33:12.318Z,96.20
2018-08-30T18:35:53.921Z,96.30
2018-08-30T18:38:35.635Z,96.60
2018-08-30T18:41:17.241Z,96.90
2018-08-30T18:43:59.069Z,97.00
2018-08-30T18:46:39.986Z,97.40
2018-08-30T18:49:21.762Z,97.30
2018-08-30T18:52:03.227Z,97.40
2018-08-30T18:54:44.001Z,97.30
2018-08-30T18:57:25.499Z,97.60
2018-08-30T19:00:06.368Z,97.50
2018-08-30T19:02:47.956Z,97.60
2018-08-30T19:05:29.660Z,97.80
2018-08-30T19:08:11.230Z,98.20
2018-08-30T19:10:52.148Z,98.40
2018-08-30T19:13:33.990Z,98.60
2018-08-30T19:16:20.811Z,98.90
2018-08-30T19:19:07.468Z,99.10
2018-08-30T19:21:49.805Z,99.10
2018-08-30T19:24:36.322Z,99.00
2018-08-30T19:27:17.531Z,99.00
2018-08-30T19:30:04.154Z,99.40
2018-08-30T19:32:45.717Z,99.30
2018-08-30T19:35:31.383Z,99.10
2018-08-30T19:38:12.245Z,99.20
2018-08-30T19:40:58.223Z,99.50
2018-08-30T19:43:39.849Z,99.60
2018-08-30T19:46:21.805Z,99.50
2018-08-30T19:49:03.447Z,99.40
2018-08-30T19:51:45.410Z,99.30
2018-08-30T19:54:26.912Z,99.90
2018-08-30T19:57:08.636Z,99.20
2018-08-30T19:59:50.379Z,99.60
2018-08-30T20:02:32.019Z,99.80
2018-08-30T20:05:12.865Z,99.80
2018-08-30T20:07:54.633Z,99.90
2018-08-30T20:10:36.182Z,99.90
2018-08-30T20:13:16.954Z,99.90
2018-08-30T20:15:58.086Z,99.90
2018-08-30T20:18:39.726Z,99.90
2018-08-30T20:21:21.646Z,99.90
2018-08-30T20:24:03.538Z,99.90
2018-08-30T20:26:45.190Z,99.90
2018-08-30T20:29:26.843Z,99.90
2018-08-30T20:32:08.757Z,99.90
2018-08-30T20:34:53.226Z,99.90
2018-08-30T20:37:37.009Z,99.90
2018-08-30T20:40:18.800Z,99.90
2018-08-30T20:43:01.339Z,99.90
2018-08-30T20:45:42.458Z,99.90
2018-08-30T20:48:24.128Z,99.90
2018-08-30T20:51:06.879Z,99.90
2018-08-30T20:53:47.991Z,99.90
2018-08-30T20:56:30.029Z,99.90
2018-08-30T20:59:11.937Z,99.90
2018-08-30T21:01:53.919Z,99.90
2018-08-30T21:04:35.780Z,99.90
2018-08-30T21:07:17.732Z,99.90
2018-08-30T21:09:58.689Z,99.90
2018-08-30T21:12:39.669Z,99.90
2018-08-30T21:15:20.872Z,99.90
2018-08-30T21:18:02.723Z,99.90
2018-08-30T21:20:45.772Z,99.90
2018-08-30T21:23:26.939Z,99.90
2018-08-30T21:26:08.100Z,99.90
2018-08-30T21:28:49.742Z,99.90
2018-08-30T21:31:31.482Z,99.90
2018-08-30T21:34:13.062Z,99.90
2018-08-30T21:36:54.120Z,99.90
2018-08-30T21:39:35.786Z,99.90
2018-08-30T21:42:17.299Z,99.90
2018-08-30T21:44:59.192Z,99.90
2018-08-30T21:47:40.731Z,99.90
2018-08-30T21:50:23.163Z,99.90
2018-08-30T21:53:03.869Z,99.90
2018-08-30T21:55:45.495Z,99.90
2018-08-30T21:58:27.181Z,99.90
2018-08-30T22:01:07.896Z,99.90
2018-08-30T22:03:48.830Z,99.90
2018-08-30T22:06:29.638Z,99.90
2018-08-30T22:09:12.024Z,99.90
2018-08-30T22:11:53.221Z,99.90
2018-08-30T22:14:34.079Z,99.90
2018-08-30T22:17:15.217Z,99.90
2018-08-30T22:19:56.127Z,99.90
2018-08-30T22:22:37.437Z,99.90
2018-08-30T22:25:18.622Z,99.90
2018-08-30T22:28:00.295Z,99.90
2018-08-30T22:30:43.029Z,99.90
2018-08-30T22:33:24.533Z,99.90
2018-08-30T22:36:06.312Z,99.90
2018-08-30T22:38:47.909Z,99.90
2018-08-30T22:41:28.695Z,99.90
2018-08-30T22:44:10.363Z,99.90
2018-08-30T22:46:51.106Z,99.90
2018-08-30T22:49:32.893Z,99.90
2018-08-30T22:52:14.305Z,99.90
2018-08-30T22:54:56.159Z,99.90
2018-08-30T22:57:37.796Z,99.90
2018-08-30T23:00:19.437Z,99.90
2018-08-30T23:03:00.341Z,99.90
2018-08-30T23:05:42.091Z,99.90
2018-08-30T23:08:24.248Z,99.90
2018-08-30T23:11:05.386Z,99.90
2018-08-30T23:13:46.931Z,99.90
2018-08-30T23:16:28.982Z,99.90
2018-08-30T23:19:09.700Z,99.90
2018-08-30T23:21:50.641Z,99.90
2018-08-30T23:24:31.514Z,99.90
2018-08-30T23:27:12.680Z,99.90
2018-08-30T23:29:53.854Z,99.90
2018-08-30T23:32:34.965Z,99.90
2018-08-30T23:35:16.097Z,99.90
2018-08-30T23:37:57.189Z,99.90
2018-08-30T23:40:39.073Z,99.90
2018-08-30T23:43:20.754Z,99.90
2018-08-30T23:46:02.401Z,99.90
2018-08-30T23:48:44.483Z,99.90
2018-08-30T23:51:26.168Z,99.90
2018-08-30T23:54:07.564Z,99.90
2018-08-30T23:56:50.570Z,99.90
2018-08-30T23:59:32.106Z,99.90
